Anacostia — WDE5804 — position and weather

sailwx.info

Track history (hours):
 
Tides and Currents Weather Stations Pressure Air Temp Water Temp Dewpoint Dewpoint Depression Visibility Wind Speed Wind Dir Waves Ship Positions

Anacostia

Owner: Vane Line Bunkering, Inc., Philadelphia, PA. More information available from US FCC via Universal Licensing System and Coast Guard Vessel Documentation Center.

Last reported at 2018-May-26 23:00 UTC. Time now 2018-May-26 23:14 UTC.
Position N 40°39' W 074°07'.

Length 33 m; draft 4.2 m.

Type: Towing. MMSI: 367371820.

Date/timePositionNaut miles runAvg speedWind from/ knotsBaromVisibWave heightAir tempDewpointWater temp
2018-May-26 23:00N 40°39' W 074°07'1 0.3
2018-May-26 21:12N 40°39' W 074°07'0 0.0
2018-May-26 20:33N 40°39' W 074°07'0 0.6
2018-May-26 20:30N 40°39' W 074°07'2 4.8
2018-May-26 20:00N 40°41' W 074°08'2 3.3
2018-May-26 19:30N 40°43' W 074°07'0 0.0
2018-May-26 19:00N 40°43' W 074°07'1 2.6
2018-May-26 18:27N 40°41' W 074°08'0 0.7
2018-May-26 18:00N 40°41' W 074°08'3 5.5
2018-May-26 17:30N 40°39' W 074°08'1 2.0
2018-May-26 17:00N 40°39' W 074°06'1 1.4
2018-May-26 16:27N 40°39' W 074°07'0 0.0
2018-May-26 15:48N 40°39' W 074°07'0 0.0
2018-May-26 15:18N 40°39' W 074°07'0 0.0
2018-May-26 14:51N 40°39' W 074°07'0 0.0
2018-May-26 14:30N 40°39' W 074°07'0 0.8
2018-May-26 13:58N 40°39' W 074°07'0 1.0
2018-May-26 13:30N 40°39' W 074°06'0 0.3
2018-May-26 12:17N 40°39' W 074°06'1 2.3
2018-May-26 12:00N 40°39' W 074°07'2 3.9
2018-May-26 11:30N 40°41' W 074°08'1 1.2
2018-May-26 11:00N 40°41' W 074°08'2 3.4
2018-May-26 10:30N 40°40' W 074°09'1 2.0
2018-May-26 09:59N 40°39' W 074°08'4 7.9
2018-May-26 09:30N 40°39' W 074°04'3 5.1
2018-May-26 09:00N 40°40' W 074°01'0 0.0
2018-May-26 08:30N 40°40' W 074°01'0 0.0
2018-May-26 08:00N 40°40' W 074°01'0 0.0
2018-May-26 07:30N 40°40' W 074°01'1 2.7
2018-May-26 07:00N 40°39' W 074°02'4 7.2
2018-May-26 06:30N 40°39' W 074°07'0 0.2
2018-May-26 05:28N 40°39' W 074°06'1 1.1
2018-May-26 05:00N 40°39' W 074°06'2 4.6
2018-May-26 04:30N 40°40' W 074°03'3 5.3
2018-May-26 04:00N 40°41' W 074°00'0 0.0
2018-May-26 03:30N 40°41' W 074°00'0 0.0
2018-May-26 03:00N 40°41' W 074°00'0 0.9
2018-May-26 02:30N 40°41' W 074°01'1 2.3
2018-May-26 02:00N 40°40' W 074°00'0 0.0
2018-May-26 01:30N 40°40' W 074°00'0 0.0
2018-May-26 01:00N 40°40' W 074°00'0 0.0
2018-May-26 00:30N 40°40' W 074°00'0 0.0
2018-May-26 00:00N 40°40' W 074°00'0 0.0
2018-May-25 23:30N 40°40' W 074°00'0 0.0
2018-May-25 23:00N 40°40' W 074°00'4 7.3
2018-May-25 22:30N 40°39' W 074°05'1 2.9
2018-May-25 22:00N 40°39' W 074°07'1 2.9
2018-May-25 21:30N 40°39' W 074°05'1 2.8
2018-May-25 21:00N 40°39' W 074°03'2 3.7
2018-May-25 20:30N 40°40' W 074°01'4 8.4
2018-May-25 19:59N 40°39' W 074°06'2 4.1
2018-May-25 19:30N 40°40' W 074°08'0 0.1
2018-May-25 19:00N 40°40' W 074°08'0 0.0
2018-May-25 18:30N 40°40' W 074°08'0 0.0
2018-May-25 18:00N 40°40' W 074°08'2 4.3
2018-May-25 17:30N 40°39' W 074°06'2 3.2
2018-May-25 17:00N 40°40' W 074°05'0 0.0
2018-May-25 16:30N 40°40' W 074°05'0 0.0
2018-May-25 16:00N 40°40' W 074°05'1 1.8
2018-May-25 15:30N 40°39' W 074°05'1 2.6
2018-May-25 15:00N 40°39' W 074°03'3 6.8
2018-May-25 14:30N 40°39' W 074°08'4 7.0
2018-May-25 14:00N 40°42' W 074°07'0 0.6
2018-May-25 13:30N 40°42' W 074°07'0 0.0
2018-May-25 13:00N 40°42' W 074°07'0 1.0
2018-May-25 12:30N 40°42' W 074°07'1 1.5
2018-May-25 12:00N 40°41' W 074°08'0 0.0
2018-May-25 11:31N 40°41' W 074°08'0 0.7
2018-May-25 11:00N 40°42' W 074°08'2 4.1
2018-May-25 10:29N 40°39' W 074°09'3 5.4
2018-May-25 10:00N 40°39' W 074°05'4 7.5
2018-May-25 09:30N 40°40' W 074°01'0 0.1
2018-May-25 09:00N 40°40' W 074°01'0 0.0
2018-May-25 08:30N 40°40' W 074°01'0 0.1
2018-May-25 08:00N 40°40' W 074°01'3 6.6
2018-May-25 07:30N 40°39' W 074°05'4 8.1
2018-May-25 07:00N 40°39' W 074°10'0 0.0
2018-May-25 05:04N 40°39' W 074°10'0 3.6
2018-May-25 04:57N 40°39' W 074°09'2 5.1
2018-May-25 04:29N 40°39' W 074°06'3 7.1
2018-May-25 04:00N 40°39' W 074°02'2 3.4
2018-May-25 03:30N 40°40' W 074°00'0 0.0
2018-May-25 03:00N 40°40' W 074°00'0 0.0
2018-May-25 02:30N 40°40' W 074°00'0 0.0
2018-May-25 02:00N 40°40' W 074°00'0 0.0
2018-May-25 01:30N 40°40' W 074°00'0 0.0
2018-May-25 01:00N 40°40' W 074°00'0 0.0
2018-May-25 00:29N 40°40' W 074°00'0 0.8
2018-May-25 00:00N 40°40' W 074°01'2 3.3
2018-May-24 23:30N 40°42' W 074°00'0 0.1
2018-May-24 23:01N 40°42' W 074°00'0 0.2
2018-May-24 22:30N 40°41' W 074°00'1 2.8
2018-May-24 22:00N 40°40' W 074°00'2 4.7
2018-May-24 21:30N 40°39' W 074°03'2 3.9
2018-May-24 21:00N 40°39' W 074°05'1 2.0
2018-May-24 20:30N 40°40' W 074°04'0 0.2
2018-May-24 20:00N 40°40' W 074°04'0 0.0
2018-May-24 19:30N 40°40' W 074°04'0 0.0
2018-May-24 19:00N 40°40' W 074°04'1 1.0
2018-May-24 18:30N 40°40' W 074°05'0 0.0
2018-May-24 17:35N 40°40' W 074°05'0 0.0
2018-May-24 17:29N 40°40' W 074°05'0 0.0
2018-May-24 16:59N 40°40' W 074°05'1 1.8
2018-May-24 16:28N 40°39' W 074°05'0 0.0
2018-May-24 15:58N 40°39' W 074°05'0 0.0
2018-May-24 15:28N 40°39' W 074°05'0 0.0
2018-May-24 14:58N 40°39' W 074°05'0 0.0
2018-May-24 14:28N 40°39' W 074°05'0 0.0
2018-May-24 13:58N 40°39' W 074°05'0 0.0
2018-May-24 13:28N 40°39' W 074°05'0 0.0
2018-May-24 08:59N 40°39' W 074°05'0 0.0
2018-May-24 08:31N 40°39' W 074°05'0 0.0
2018-May-24 08:01N 40°39' W 074°05'1 2.4
2018-May-24 07:31N 40°39' W 074°03'1 1.1
2018-May-24 07:01N 40°39' W 074°03'0 0.1
2018-May-24 06:28N 40°39' W 074°03'0 0.1
2018-May-24 05:58N 40°39' W 074°03'0 0.0
2018-May-24 05:28N 40°39' W 074°03'0 0.1
2018-May-24 04:58N 40°39' W 074°03'0 0.0
2018-May-24 04:28N 40°39' W 074°03'0 0.0
2018-May-24 03:55N 40°39' W 074°03'0 0.0
2018-May-24 03:25N 40°39' W 074°03'0 0.0
2018-May-24 03:00N 40°39' W 074°03'0 0.1
2018-May-24 02:30N 40°39' W 074°03'1 2.9
2018-May-24 02:00N 40°38' W 074°04'4 7.1
2018-May-24 01:30N 40°39' W 074°08'3 6.2
2018-May-24 01:00N 40°38' W 074°12'1 0.8
2018-May-23 23:24N 40°39' W 074°11'3 0.7
2018-May-23 19:04N 40°39' W 074°07'1 7.6
2018-May-23 18:59N 40°39' W 074°07'1 2.3
2018-May-23 18:30N 40°39' W 074°05'3 5.3
2018-May-23 18:00N 40°39' W 074°09'2 1.3
2018-May-23 16:14N 40°41' W 074°09'1 1.5
2018-May-23 15:49N 40°40' W 074°08'0 0.0
2018-May-23 15:16N 40°40' W 074°08'0 0.0
2018-May-23 14:58N 40°40' W 074°08'0 0.0
2018-May-23 14:28N 40°40' W 074°08'0 0.7
2018-May-23 13:58N 40°40' W 074°09'2 5.2
2018-May-23 13:30N 40°39' W 074°06'4 7.4
2018-May-23 13:00N 40°40' W 074°01'1 1.5
2018-May-23 12:31N 40°40' W 074°00'0 0.0
2018-May-23 12:00N 40°40' W 074°00'0 0.0
2018-May-23 11:30N 40°40' W 074°00'3 5.9
2018-May-23 11:01N 40°39' W 074°04'1 2.6
2018-May-23 10:30N 40°39' W 074°05'0 0.5
2018-May-23 10:01N 40°39' W 074°05'2 3.9
2018-May-23 09:31N 40°40' W 074°03'2 3.2
2018-May-23 09:00N 40°40' W 074°05'0 0.0
2018-May-23 08:31N 40°40' W 074°05'0 0.0
2018-May-23 08:01N 40°40' W 074°05'0 0.0
2018-May-23 07:30N 40°40' W 074°05'0 0.0
2018-May-23 07:00N 40°40' W 074°05'0 0.0
2018-May-23 06:31N 40°40' W 074°05'0 0.0
2018-May-23 06:00N 40°40' W 074°05'0 0.0
2018-May-23 05:31N 40°40' W 074°05'2 3.1
2018-May-23 05:01N 40°40' W 074°03'3 6.2
2018-May-23 04:30N 40°39' W 074°07'3 6.5
2018-May-23 03:57N 40°39' W 074°11'1 0.7
2018-May-23 02:49N 40°39' W 074°10'3 6.8
2018-May-23 02:23N 40°39' W 074°06'2 5.4
2018-May-23 02:00N 40°38' W 074°04'2 4.9
2018-May-23 01:31N 40°40' W 074°01'0 0.2
2018-May-23 01:01N 40°40' W 074°01'0 0.0
2018-May-23 00:30N 40°40' W 074°01'1 1.5
2018-May-23 00:01N 40°40' W 074°00'0 0.0
2018-May-22 23:31N 40°40' W 074°00'0 0.0
2018-May-22 23:01N 40°40' W 074°00'0 0.7
2018-May-22 22:31N 40°40' W 074°01'4 7.2
2018-May-22 22:00N 40°37' W 074°03'0 0.5
2018-May-22 21:30N 40°37' W 074°03'2 4.5
2018-May-22 21:00N 40°39' W 074°03'0 0.1
2018-May-22 20:29N 40°39' W 074°03'0 0.0
2018-May-22 20:00N 40°39' W 074°03'2 2.1
2018-May-22 19:17N 40°37' W 074°04'2 6.5
2018-May-22 19:01N 40°39' W 074°02'2 3.7
2018-May-22 18:31N 40°40' W 074°00'1 2.9
2018-May-22 18:01N 40°42' W 074°00'2 3.1
2018-May-22 17:31N 40°40' W 074°02'4 7.5
2018-May-22 17:00N 40°39' W 074°07'1 1.1
2018-May-22 16:30N 40°39' W 074°06'0 0.0
2018-May-22 16:00N 40°39' W 074°06'0 0.0
2018-May-22 15:30N 40°39' W 074°06'0 0.0
2018-May-22 15:00N 40°39' W 074°06'0 0.0
2018-May-22 14:30N 40°39' W 074°06'0 0.0
2018-May-22 13:57N 40°39' W 074°06'2 5.3
2018-May-22 13:30N 40°40' W 074°09'1 1.0
2018-May-22 12:59N 40°40' W 074°09'0 0.3
2018-May-22 12:29N 40°40' W 074°08'1 2.5
2018-May-22 11:55N 40°41' W 074°10'0 0.0
2018-May-22 11:25N 40°41' W 074°10'0 0.0
2018-May-22 08:44N 40°41' W 074°10'0 0.9
2018-May-22 08:29N 40°41' W 074°09'3 5.5
2018-May-22 08:00N 40°39' W 074°09'3 6.1
2018-May-22 07:31N 40°39' W 074°05'0 0.7
2018-May-22 07:01N 40°39' W 074°05'1 2.6
2018-May-22 06:27N 40°39' W 074°07'0 0.9
2018-May-22 06:00N 40°39' W 074°07'3 5.5
2018-May-22 05:30N 40°39' W 074°03'2 4.2
2018-May-22 05:00N 40°40' W 074°00'0 0.0
2018-May-22 04:31N 40°40' W 074°00'0 0.0
2018-May-22 04:00N 40°40' W 074°00'0 0.0
2018-May-22 03:30N 40°40' W 074°00'0 0.0
2018-May-22 03:00N 40°40' W 074°00'0 0.0
2018-May-22 02:30N 40°40' W 074°00'0 0.0
2018-May-22 02:00N 40°40' W 074°00'0 0.1
2018-May-22 01:30N 40°40' W 074°00'3 7.0
2018-May-22 01:01N 40°39' W 074°05'0 0.1
2018-May-22 00:29N 40°39' W 074°05'3 6.0
2018-May-22 00:00N 40°38' W 074°09'1 1.9
2018-May-21 23:14N 40°40' W 074°09'0 0.1
2018-May-21 22:50N 40°40' W 074°09'0 0.0
2018-May-21 22:20N 40°40' W 074°09'0 0.0
2018-May-21 21:50N 40°40' W 074°09'0 0.0
2018-May-21 21:20N 40°40' W 074°09'0 0.0
2018-May-21 20:56N 40°40' W 074°09'0 0.0
2018-May-21 20:20N 40°40' W 074°09'0 0.0
2018-May-21 19:50N 40°40' W 074°09'0 0.0
2018-May-21 19:14N 40°40' W 074°09'0 0.0
2018-May-21 18:59N 40°40' W 074°09'2 3.9
2018-May-21 18:30N 40°39' W 074°07'4 7.8
2018-May-21 18:00N 40°39' W 074°02'1 1.0
2018-May-21 17:30N 40°40' W 074°01'1 1.5
2018-May-21 16:58N 40°40' W 074°02'0 0.3
2018-May-21 16:28N 40°40' W 074°02'3 6.0
2018-May-21 16:01N 40°39' W 074°05'3 2.2
2018-May-21 14:25N 40°39' W 074°10'2 6.0
2018-May-21 14:00N 40°39' W 074°07'3 6.8
2018-May-21 13:30N 40°40' W 074°02'0 0.8
2018-May-21 13:01N 40°40' W 074°02'0 0.0
2018-May-21 12:31N 40°40' W 074°02'0 0.0
2018-May-21 12:00N 40°40' W 074°02'0 0.0
2018-May-21 11:30N 40°40' W 074°02'0 0.0
2018-May-21 11:01N 40°40' W 074°02'0 0.0
2018-May-21 10:31N 40°40' W 074°02'0 0.0
2018-May-21 10:01N 40°40' W 074°02'0 0.0
2018-May-21 09:31N 40°40' W 074°02'0 0.1
2018-May-21 09:01N 40°40' W 074°02'0 0.0
2018-May-21 08:31N 40°40' W 074°02'0 0.3
2018-May-21 08:00N 40°40' W 074°02'0 0.2
2018-May-21 07:30N 40°40' W 074°02'0 0.1
2018-May-21 07:01N 40°40' W 074°02'0 0.0
2018-May-21 06:31N 40°40' W 074°02'0 0.0
2018-May-21 06:01N 40°40' W 074°02'0 0.0
2018-May-21 05:30N 40°40' W 074°02'0 0.0
2018-May-21 05:01N 40°40' W 074°02'0 0.0
2018-May-21 04:31N 40°40' W 074°02'0 0.0
2018-May-21 04:01N 40°40' W 074°02'0 0.3
2018-May-21 03:30N 40°40' W 074°02'0 0.2
2018-May-21 03:00N 40°40' W 074°02'0 0.0
2018-May-21 02:31N 40°40' W 074°02'0 0.1
2018-May-21 02:01N 40°40' W 074°02'0 0.0
2018-May-21 01:31N 40°40' W 074°02'0 0.1
2018-May-21 01:01N 40°40' W 074°02'0 0.0
2018-May-21 00:30N 40°40' W 074°02'0 0.0
2018-May-21 00:00N 40°40' W 074°02'0 0.0
2018-May-20 23:30N 40°40' W 074°02'0 0.0
2018-May-20 23:01N 40°40' W 074°02'0 0.1
2018-May-20 22:30N 40°40' W 074°02'0 0.0
2018-May-20 22:00N 40°40' W 074°02'0 0.0
2018-May-20 21:30N 40°40' W 074°02'0 0.0
2018-May-20 21:00N 40°40' W 074°02'0 0.0
2018-May-20 20:30N 40°40' W 074°02'0 0.1
2018-May-20 20:00N 40°40' W 074°02'0 0.1
2018-May-20 19:30N 40°40' W 074°02'0 0.1
2018-May-20 19:00N 40°40' W 074°02'0 0.1
2018-May-20 18:30N 40°40' W 074°02'0 0.0
2018-May-20 18:00N 40°40' W 074°02'0 0.0
2018-May-20 17:30N 40°40' W 074°02'0 0.1
2018-May-20 17:00N 40°40' W 074°02'0 0.0
2018-May-20 16:30N 40°40' W 074°02'0 0.0
2018-May-20 16:00N 40°40' W 074°02'0 0.1
2018-May-20 15:30N 40°40' W 074°02'0 0.3
2018-May-20 14:57N 40°40' W 074°02'0 0.1
2018-May-20 14:30N 40°40' W 074°02'0 0.1
2018-May-20 14:00N 40°40' W 074°02'0 0.0
2018-May-20 13:30N 40°40' W 074°02'0 0.0
2018-May-20 12:54N 40°40' W 074°02'0 0.0
2018-May-20 12:21N 40°40' W 074°02'0 0.1
2018-May-20 12:00N 40°40' W 074°02'0 0.0
2018-May-20 11:27N 40°40' W 074°02'0 0.0
2018-May-20 11:00N 40°40' W 074°02'0 0.0
2018-May-20 10:30N 40°40' W 074°02'0 0.0
2018-May-20 09:57N 40°40' W 074°02'0 0.0
2018-May-20 09:12N 40°40' W 074°02'0 0.0
2018-May-20 08:57N 40°40' W 074°02'0 0.0
2018-May-20 08:21N 40°40' W 074°02'0 0.0
2018-May-20 07:57N 40°40' W 074°02'0 0.1
2018-May-20 07:21N 40°40' W 074°02'0 0.1
2018-May-20 06:57N 40°40' W 074°02'0 0.2
2018-May-20 06:24N 40°40' W 074°02'0 0.1
2018-May-20 05:51N 40°40' W 074°02'0 0.0
2018-May-20 05:27N 40°40' W 074°02'0 0.0
2018-May-20 05:00N 40°40' W 074°02'0 0.0
2018-May-20 04:30N 40°40' W 074°02'0 0.0
2018-May-20 04:00N 40°40' W 074°02'0 0.0
2018-May-20 03:30N 40°40' W 074°02'0 0.0
2018-May-20 03:00N 40°40' W 074°02'0 0.1
2018-May-20 02:30N 40°40' W 074°02'0 0.3
2018-May-20 02:00N 40°40' W 074°02'0 0.0
2018-May-20 01:30N 40°40' W 074°02'0 0.0
2018-May-20 01:00N 40°40' W 074°02'0 0.0
2018-May-20 00:30N 40°40' W 074°02'0 0.0
2018-May-20 00:00N 40°40' W 074°02'0 0.1
2018-May-19 23:30N 40°40' W 074°02'0 0.0
2018-May-19 23:00N 40°40' W 074°02'0 0.0
2018-May-19 22:30N 40°40' W 074°02'0 0.0
2018-May-19 22:00N 40°40' W 074°02'0 0.0
2018-May-19 21:30N 40°40' W 074°02'0 0.0
2018-May-19 21:00N 40°40' W 074°02'0 0.0
2018-May-19 20:30N 40°40' W 074°02'0 0.1
2018-May-19 20:00N 40°40' W 074°02'0 0.0
2018-May-19 19:30N 40°40' W 074°02'0 0.0
2018-May-19 19:00N 40°40' W 074°02'0 0.1
2018-May-19 18:30N 40°40' W 074°02'0 0.2
2018-May-19 18:00N 40°40' W 074°02'0 0.1
2018-May-19 17:30N 40°40' W 074°02'0 0.0
2018-May-19 17:00N 40°40' W 074°02'2 3.2
2018-May-19 16:30N 40°39' W 074°03'1 2.5
2018-May-19 16:01N 40°39' W 074°05'1 1.8
2018-May-19 15:30N 40°40' W 074°05'0 0.5
2018-May-19 14:59N 40°40' W 074°05'0 0.0
2018-May-19 14:29N 40°40' W 074°05'0 0.0
2018-May-19 13:59N 40°40' W 074°05'0 0.0
2018-May-19 13:29N 40°40' W 074°05'0 0.0
2018-May-19 12:59N 40°40' W 074°05'0 0.0
2018-May-19 12:26N 40°40' W 074°05'0 0.0
2018-May-19 11:59N 40°40' W 074°05'0 0.0
2018-May-19 11:29N 40°40' W 074°05'0 0.0
2018-May-19 10:59N 40°40' W 074°05'0 0.0
2018-May-19 10:23N 40°40' W 074°05'0 0.0
2018-May-19 09:59N 40°40' W 074°05'0 0.0
2018-May-19 09:29N 40°40' W 074°05'0 0.0
2018-May-19 08:59N 40°40' W 074°05'0 0.0
2018-May-19 08:29N 40°40' W 074°05'0 0.0
2018-May-19 07:59N 40°40' W 074°05'0 0.0
2018-May-19 07:29N 40°40' W 074°05'0 0.0
2018-May-19 06:59N 40°40' W 074°05'0 0.0
2018-May-19 06:29N 40°40' W 074°05'0 0.1
2018-May-19 05:56N 40°40' W 074°05'0 0.2
2018-May-19 05:29N 40°40' W 074°05'0 0.0
2018-May-19 04:56N 40°40' W 074°05'0 0.0
2018-May-19 04:29N 40°40' W 074°05'0 0.0
2018-May-19 03:59N 40°40' W 074°05'0 0.1
2018-May-19 03:30N 40°40' W 074°05'1 1.6
2018-May-19 02:55N 40°39' W 074°05'0 0.5
2018-May-19 02:30N 40°39' W 074°05'1 2.9
2018-May-19 02:00N 40°39' W 074°03'0 0.1
2018-May-19 01:30N 40°39' W 074°03'0 0.2
2018-May-19 00:57N 40°39' W 074°03'0 0.2
2018-May-19 00:30N 40°39' W 074°03'0 0.1
2018-May-19 00:00N 40°39' W 074°03'0 0.0
2018-May-18 23:27N 40°39' W 074°03'0 0.0
2018-May-18 22:57N 40°39' W 074°03'0 0.0
2018-May-18 22:30N 40°39' W 074°03'0 0.0
2018-May-18 22:00N 40°39' W 074°03'0 0.0
2018-May-18 21:30N 40°39' W 074°03'0 0.0
2018-May-18 21:00N 40°39' W 074°03'0 0.0
2018-May-18 20:24N 40°39' W 074°03'0 0.0
2018-May-18 19:57N 40°39' W 074°03'0 0.0
2018-May-18 19:30N 40°39' W 074°03'0 0.0
2018-May-18 19:00N 40°39' W 074°03'1 1.1
2018-May-18 18:30N 40°39' W 074°04'4 6.9
2018-May-18 18:00N 40°39' W 074°08'2 4.5
2018-May-18 17:30N 40°39' W 074°11'0 0.2
2018-May-18 15:20N 40°38' W 074°12'2 5.8
2018-May-18 14:58N 40°39' W 074°09'4 8.4
2018-May-18 14:31N 40°39' W 074°04'2 3.1
2018-May-18 14:00N 40°40' W 074°03'2 4.5
2018-May-18 13:30N 40°39' W 074°05'3 4.6
2018-May-18 12:56N 40°39' W 074°09'2 3.3
2018-May-18 12:27N 40°41' W 074°09'1 2.4
2018-May-18 12:00N 40°40' W 074°08'2 4.8
2018-May-18 11:30N 40°39' W 074°06'0 0.0
2018-May-18 11:00N 40°39' W 074°06'2 4.6
2018-May-18 10:30N 40°39' W 074°09'1 2.5
2018-May-18 09:57N 40°40' W 074°09'0 0.0
2018-May-18 08:42N 40°40' W 074°09'0 0.0
2018-May-18 07:00N 40°40' W 074°09'1 2.6
2018-May-18 06:30N 40°39' W 074°09'3 6.5
2018-May-18 06:00N 40°39' W 074°05'3 6.6
2018-May-18 05:30N 40°40' W 074°00'0 0.0
2018-May-18 05:00N 40°40' W 074°00'0 0.0
2018-May-18 04:30N 40°40' W 074°00'0 0.0
2018-May-18 04:00N 40°40' W 074°00'0 0.0
2018-May-18 03:30N 40°40' W 074°00'0 0.0
2018-May-18 03:00N 40°40' W 074°00'0 0.0
2018-May-18 02:30N 40°40' W 074°00'0 0.0
2018-May-18 02:00N 40°40' W 074°00'0 0.0
2018-May-18 01:30N 40°40' W 074°00'0 0.0
2018-May-18 01:00N 40°40' W 074°00'0 0.0
2018-May-18 00:30N 40°40' W 074°00'0 0.0
2018-May-18 00:01N 40°40' W 074°00'0 0.1
2018-May-17 23:30N 40°40' W 074°00'0 0.1
2018-May-17 23:00N 40°40' W 074°00'0 0.0
2018-May-17 22:30N 40°40' W 074°00'2 3.2
2018-May-17 22:01N 40°39' W 074°02'5 8.7
2018-May-17 21:29N 40°39' W 074°08'0 0.7
2018-May-17 20:55N 40°39' W 074°08'4 9.0
2018-May-17 20:30N 40°40' W 074°03'1 2.8
2018-May-17 20:00N 40°41' W 074°01'4 8.8
2018-May-17 19:30N 40°39' W 074°07'4 8.5
2018-May-17 19:00N 40°40' W 074°01'1 2.1
2018-May-17 18:30N 40°40' W 074°00'0 0.0
2018-May-17 18:00N 40°40' W 074°00'0 0.0
2018-May-17 17:30N 40°40' W 074°00'0 0.0
2018-May-17 17:00N 40°40' W 074°00'0 0.0
2018-May-17 16:30N 40°40' W 074°00'0 0.0
2018-May-17 16:00N 40°40' W 074°00'0 0.0
2018-May-17 15:30N 40°40' W 074°00'0 0.0
2018-May-17 15:00N 40°40' W 074°00'0 0.5
2018-May-17 14:30N 40°40' W 074°00'2 3.0
2018-May-17 14:00N 40°41' W 074°00'0 0.1
2018-May-17 13:26N 40°41' W 074°00'2 4.1
2018-May-17 13:00N 40°40' W 074°01'3 5.3
2018-May-17 12:29N 40°40' W 074°05'0 0.0
2018-May-17 11:59N 40°40' W 074°05'0 0.0
2018-May-17 11:29N 40°40' W 074°05'0 0.0
2018-May-17 10:56N 40°40' W 074°05'0 0.0
2018-May-17 10:29N 40°40' W 074°05'0 0.0
2018-May-17 09:53N 40°40' W 074°05'0 0.0
2018-May-17 09:23N 40°40' W 074°05'0 0.0
2018-May-17 08:59N 40°40' W 074°05'2 3.6
2018-May-17 08:30N 40°39' W 074°07'3 7.0
2018-May-17 08:00N 40°39' W 074°02'2 3.4
2018-May-17 07:31N 40°40' W 074°00'0 0.0
2018-May-17 07:01N 40°40' W 074°00'0 0.0
2018-May-17 06:30N 40°40' W 074°00'0 0.0
2018-May-17 06:00N 40°40' W 074°00'0 0.6
2018-May-17 05:30N 40°40' W 074°00'4 7.2
2018-May-17 05:01N 40°39' W 074°05'3 5.7
2018-May-17 04:30N 40°40' W 074°09'0 0.0
2018-May-17 04:00N 40°40' W 074°09'2 4.7
2018-May-17 03:29N 40°39' W 074°06'0 0.4
2018-May-17 02:52N 40°39' W 074°05'0 0.0
2018-May-17 02:28N 40°39' W 074°05'0 0.0
2018-May-17 00:46N 40°39' W 074°05'0 0.0
2018-May-17 00:27N 40°39' W 074°05'0 0.6
2018-May-16 23:46N 40°39' W 074°06'0 1.6
2018-May-16 23:30N 40°39' W 074°05'  
Track history (hours):
 
Tides and Currents Weather Stations Pressure Air Temp Water Temp Dewpoint Dewpoint Depression Visibility Wind Speed Wind Dir Waves Ship Positions

Anacostia

Owner: Vane Line Bunkering, Inc., Philadelphia, PA. More information available from US FCC via Universal Licensing System and Coast Guard Vessel Documentation Center.

Last reported at 2018-May-26 23:00 UTC. Time now 2018-May-26 23:14 UTC.
Position N 40°39' W 074°07'.

Length 33 m; draft 4.2 m.

Type: Towing. MMSI: 367371820.

Date/timePositionNaut miles runAvg speedWind from/ knotsBaromVisibWave heightAir tempDewpointWater temp
2018-May-26 23:00N 40°39' W 074°07'1 0.3
2018-May-26 21:12N 40°39' W 074°07'0 0.0
2018-May-26 20:33N 40°39' W 074°07'0 0.6
2018-May-26 20:30N 40°39' W 074°07'2 4.8
2018-May-26 20:00N 40°41' W 074°08'2 3.3
2018-May-26 19:30N 40°43' W 074°07'0 0.0
2018-May-26 19:00N 40°43' W 074°07'1 2.6
2018-May-26 18:27N 40°41' W 074°08'0 0.7
2018-May-26 18:00N 40°41' W 074°08'3 5.5
2018-May-26 17:30N 40°39' W 074°08'1 2.0
2018-May-26 17:00N 40°39' W 074°06'1 1.4
2018-May-26 16:27N 40°39' W 074°07'0 0.0
2018-May-26 15:48N 40°39' W 074°07'0 0.0
2018-May-26 15:18N 40°39' W 074°07'0 0.0
2018-May-26 14:51N 40°39' W 074°07'0 0.0
2018-May-26 14:30N 40°39' W 074°07'0 0.8
2018-May-26 13:58N 40°39' W 074°07'0 1.0
2018-May-26 13:30N 40°39' W 074°06'0 0.3
2018-May-26 12:17N 40°39' W 074°06'1 2.3
2018-May-26 12:00N 40°39' W 074°07'2 3.9
2018-May-26 11:30N 40°41' W 074°08'1 1.2
2018-May-26 11:00N 40°41' W 074°08'2 3.4
2018-May-26 10:30N 40°40' W 074°09'1 2.0
2018-May-26 09:59N 40°39' W 074°08'4 7.9
2018-May-26 09:30N 40°39' W 074°04'3 5.1
2018-May-26 09:00N 40°40' W 074°01'0 0.0
2018-May-26 08:30N 40°40' W 074°01'0 0.0
2018-May-26 08:00N 40°40' W 074°01'0 0.0
2018-May-26 07:30N 40°40' W 074°01'1 2.7
2018-May-26 07:00N 40°39' W 074°02'4 7.2
2018-May-26 06:30N 40°39' W 074°07'0 0.2
2018-May-26 05:28N 40°39' W 074°06'1 1.1
2018-May-26 05:00N 40°39' W 074°06'2 4.6
2018-May-26 04:30N 40°40' W 074°03'3 5.3
2018-May-26 04:00N 40°41' W 074°00'0 0.0
2018-May-26 03:30N 40°41' W 074°00'0 0.0
2018-May-26 03:00N 40°41' W 074°00'0 0.9
2018-May-26 02:30N 40°41' W 074°01'1 2.3
2018-May-26 02:00N 40°40' W 074°00'0 0.0
2018-May-26 01:30N 40°40' W 074°00'0 0.0
2018-May-26 01:00N 40°40' W 074°00'0 0.0
2018-May-26 00:30N 40°40' W 074°00'0 0.0
2018-May-26 00:00N 40°40' W 074°00'0 0.0
2018-May-25 23:30N 40°40' W 074°00'0 0.0
2018-May-25 23:00N 40°40' W 074°00'4 7.3
2018-May-25 22:30N 40°39' W 074°05'1 2.9
2018-May-25 22:00N 40°39' W 074°07'1 2.9
2018-May-25 21:30N 40°39' W 074°05'1 2.8
2018-May-25 21:00N 40°39' W 074°03'2 3.7
2018-May-25 20:30N 40°40' W 074°01'4 8.4
2018-May-25 19:59N 40°39' W 074°06'2 4.1
2018-May-25 19:30N 40°40' W 074°08'0 0.1
2018-May-25 19:00N 40°40' W 074°08'0 0.0
2018-May-25 18:30N 40°40' W 074°08'0 0.0
2018-May-25 18:00N 40°40' W 074°08'2 4.3
2018-May-25 17:30N 40°39' W 074°06'2 3.2
2018-May-25 17:00N 40°40' W 074°05'0 0.0
2018-May-25 16:30N 40°40' W 074°05'0 0.0
2018-May-25 16:00N 40°40' W 074°05'1 1.8
2018-May-25 15:30N 40°39' W 074°05'1 2.6
2018-May-25 15:00N 40°39' W 074°03'3 6.8
2018-May-25 14:30N 40°39' W 074°08'4 7.0
2018-May-25 14:00N 40°42' W 074°07'0 0.6
2018-May-25 13:30N 40°42' W 074°07'0 0.0
2018-May-25 13:00N 40°42' W 074°07'0 1.0
2018-May-25 12:30N 40°42' W 074°07'1 1.5
2018-May-25 12:00N 40°41' W 074°08'0 0.0
2018-May-25 11:31N 40°41' W 074°08'0 0.7
2018-May-25 11:00N 40°42' W 074°08'2 4.1
2018-May-25 10:29N 40°39' W 074°09'3 5.4
2018-May-25 10:00N 40°39' W 074°05'4 7.5
2018-May-25 09:30N 40°40' W 074°01'0 0.1
2018-May-25 09:00N 40°40' W 074°01'0 0.0
2018-May-25 08:30N 40°40' W 074°01'0 0.1
2018-May-25 08:00N 40°40' W 074°01'3 6.6
2018-May-25 07:30N 40°39' W 074°05'4 8.1
2018-May-25 07:00N 40°39' W 074°10'0 0.0
2018-May-25 05:04N 40°39' W 074°10'0 3.6
2018-May-25 04:57N 40°39' W 074°09'2 5.1
2018-May-25 04:29N 40°39' W 074°06'3 7.1
2018-May-25 04:00N 40°39' W 074°02'2 3.4
2018-May-25 03:30N 40°40' W 074°00'0 0.0
2018-May-25 03:00N 40°40' W 074°00'0 0.0
2018-May-25 02:30N 40°40' W 074°00'0 0.0
2018-May-25 02:00N 40°40' W 074°00'0 0.0
2018-May-25 01:30N 40°40' W 074°00'0 0.0
2018-May-25 01:00N 40°40' W 074°00'0 0.0
2018-May-25 00:29N 40°40' W 074°00'0 0.8
2018-May-25 00:00N 40°40' W 074°01'2 3.3
2018-May-24 23:30N 40°42' W 074°00'0 0.1
2018-May-24 23:01N 40°42' W 074°00'0 0.2
2018-May-24 22:30N 40°41' W 074°00'1 2.8
2018-May-24 22:00N 40°40' W 074°00'2 4.7
2018-May-24 21:30N 40°39' W 074°03'2 3.9
2018-May-24 21:00N 40°39' W 074°05'1 2.0
2018-May-24 20:30N 40°40' W 074°04'0 0.2
2018-May-24 20:00N 40°40' W 074°04'0 0.0
2018-May-24 19:30N 40°40' W 074°04'0 0.0
2018-May-24 19:00N 40°40' W 074°04'1 1.0
2018-May-24 18:30N 40°40' W 074°05'0 0.0
2018-May-24 17:35N 40°40' W 074°05'0 0.0
2018-May-24 17:29N 40°40' W 074°05'0 0.0
2018-May-24 16:59N 40°40' W 074°05'1 1.8
2018-May-24 16:28N 40°39' W 074°05'0 0.0
2018-May-24 15:58N 40°39' W 074°05'0 0.0
2018-May-24 15:28N 40°39' W 074°05'0 0.0
2018-May-24 14:58N 40°39' W 074°05'0 0.0
2018-May-24 14:28N 40°39' W 074°05'0 0.0
2018-May-24 13:58N 40°39' W 074°05'0 0.0
2018-May-24 13:28N 40°39' W 074°05'0 0.0
2018-May-24 08:59N 40°39' W 074°05'0 0.0
2018-May-24 08:31N 40°39' W 074°05'0 0.0
2018-May-24 08:01N 40°39' W 074°05'1 2.4
2018-May-24 07:31N 40°39' W 074°03'1 1.1
2018-May-24 07:01N 40°39' W 074°03'0 0.1
2018-May-24 06:28N 40°39' W 074°03'0 0.1
2018-May-24 05:58N 40°39' W 074°03'0 0.0
2018-May-24 05:28N 40°39' W 074°03'0 0.1
2018-May-24 04:58N 40°39' W 074°03'0 0.0
2018-May-24 04:28N 40°39' W 074°03'0 0.0
2018-May-24 03:55N 40°39' W 074°03'0 0.0
2018-May-24 03:25N 40°39' W 074°03'0 0.0
2018-May-24 03:00N 40°39' W 074°03'0 0.1
2018-May-24 02:30N 40°39' W 074°03'1 2.9
2018-May-24 02:00N 40°38' W 074°04'4 7.1
2018-May-24 01:30N 40°39' W 074°08'3 6.2
2018-May-24 01:00N 40°38' W 074°12'1 0.8
2018-May-23 23:24N 40°39' W 074°11'3 0.7
2018-May-23 19:04N 40°39' W 074°07'1 7.6
2018-May-23 18:59N 40°39' W 074°07'1 2.3
2018-May-23 18:30N 40°39' W 074°05'3 5.3
2018-May-23 18:00N 40°39' W 074°09'2 1.3
2018-May-23 16:14N 40°41' W 074°09'1 1.5
2018-May-23 15:49N 40°40' W 074°08'0 0.0
2018-May-23 15:16N 40°40' W 074°08'0 0.0
2018-May-23 14:58N 40°40' W 074°08'0 0.0
2018-May-23 14:28N 40°40' W 074°08'0 0.7
2018-May-23 13:58N 40°40' W 074°09'2 5.2
2018-May-23 13:30N 40°39' W 074°06'4 7.4
2018-May-23 13:00N 40°40' W 074°01'1 1.5
2018-May-23 12:31N 40°40' W 074°00'0 0.0
2018-May-23 12:00N 40°40' W 074°00'0 0.0
2018-May-23 11:30N 40°40' W 074°00'3 5.9
2018-May-23 11:01N 40°39' W 074°04'1 2.6
2018-May-23 10:30N 40°39' W 074°05'0 0.5
2018-May-23 10:01N 40°39' W 074°05'2 3.9
2018-May-23 09:31N 40°40' W 074°03'2 3.2
2018-May-23 09:00N 40°40' W 074°05'0 0.0
2018-May-23 08:31N 40°40' W 074°05'0 0.0
2018-May-23 08:01N 40°40' W 074°05'0 0.0
2018-May-23 07:30N 40°40' W 074°05'0 0.0
2018-May-23 07:00N 40°40' W 074°05'0 0.0
2018-May-23 06:31N 40°40' W 074°05'0 0.0
2018-May-23 06:00N 40°40' W 074°05'0 0.0
2018-May-23 05:31N 40°40' W 074°05'2 3.1
2018-May-23 05:01N 40°40' W 074°03'3 6.2
2018-May-23 04:30N 40°39' W 074°07'3 6.5
2018-May-23 03:57N 40°39' W 074°11'1 0.7
2018-May-23 02:49N 40°39' W 074°10'3 6.8
2018-May-23 02:23N 40°39' W 074°06'2 5.4
2018-May-23 02:00N 40°38' W 074°04'2 4.9
2018-May-23 01:31N 40°40' W 074°01'0 0.2
2018-May-23 01:01N 40°40' W 074°01'0 0.0
2018-May-23 00:30N 40°40' W 074°01'1 1.5
2018-May-23 00:01N 40°40' W 074°00'0 0.0
2018-May-22 23:31N 40°40' W 074°00'0 0.0
2018-May-22 23:01N 40°40' W 074°00'0 0.7
2018-May-22 22:31N 40°40' W 074°01'4 7.2
2018-May-22 22:00N 40°37' W 074°03'0 0.5
2018-May-22 21:30N 40°37' W 074°03'2 4.5
2018-May-22 21:00N 40°39' W 074°03'0 0.1
2018-May-22 20:29N 40°39' W 074°03'0 0.0
2018-May-22 20:00N 40°39' W 074°03'2 2.1
2018-May-22 19:17N 40°37' W 074°04'2 6.5
2018-May-22 19:01N 40°39' W 074°02'2 3.7
2018-May-22 18:31N 40°40' W 074°00'1 2.9
2018-May-22 18:01N 40°42' W 074°00'2 3.1
2018-May-22 17:31N 40°40' W 074°02'4 7.5
2018-May-22 17:00N 40°39' W 074°07'1 1.1
2018-May-22 16:30N 40°39' W 074°06'0 0.0
2018-May-22 16:00N 40°39' W 074°06'0 0.0
2018-May-22 15:30N 40°39' W 074°06'0 0.0
2018-May-22 15:00N 40°39' W 074°06'0 0.0
2018-May-22 14:30N 40°39' W 074°06'0 0.0
2018-May-22 13:57N 40°39' W 074°06'2 5.3
2018-May-22 13:30N 40°40' W 074°09'1 1.0
2018-May-22 12:59N 40°40' W 074°09'0 0.3
2018-May-22 12:29N 40°40' W 074°08'1 2.5
2018-May-22 11:55N 40°41' W 074°10'0 0.0
2018-May-22 11:25N 40°41' W 074°10'0 0.0
2018-May-22 08:44N 40°41' W 074°10'0 0.9
2018-May-22 08:29N 40°41' W 074°09'3 5.5
2018-May-22 08:00N 40°39' W 074°09'3 6.1
2018-May-22 07:31N 40°39' W 074°05'0 0.7
2018-May-22 07:01N 40°39' W 074°05'1 2.6
2018-May-22 06:27N 40°39' W 074°07'0 0.9
2018-May-22 06:00N 40°39' W 074°07'3 5.5
2018-May-22 05:30N 40°39' W 074°03'2 4.2
2018-May-22 05:00N 40°40' W 074°00'0 0.0
2018-May-22 04:31N 40°40' W 074°00'0 0.0
2018-May-22 04:00N 40°40' W 074°00'0 0.0
2018-May-22 03:30N 40°40' W 074°00'0 0.0
2018-May-22 03:00N 40°40' W 074°00'0 0.0
2018-May-22 02:30N 40°40' W 074°00'0 0.0
2018-May-22 02:00N 40°40' W 074°00'0 0.1
2018-May-22 01:30N 40°40' W 074°00'3 7.0
2018-May-22 01:01N 40°39' W 074°05'0 0.1
2018-May-22 00:29N 40°39' W 074°05'3 6.0
2018-May-22 00:00N 40°38' W 074°09'1 1.9
2018-May-21 23:14N 40°40' W 074°09'0 0.1
2018-May-21 22:50N 40°40' W 074°09'0 0.0
2018-May-21 22:20N 40°40' W 074°09'0 0.0
2018-May-21 21:50N 40°40' W 074°09'0 0.0
2018-May-21 21:20N 40°40' W 074°09'0 0.0
2018-May-21 20:56N 40°40' W 074°09'0 0.0
2018-May-21 20:20N 40°40' W 074°09'0 0.0
2018-May-21 19:50N 40°40' W 074°09'0 0.0
2018-May-21 19:14N 40°40' W 074°09'0 0.0
2018-May-21 18:59N 40°40' W 074°09'2 3.9
2018-May-21 18:30N 40°39' W 074°07'4 7.8
2018-May-21 18:00N 40°39' W 074°02'1 1.0
2018-May-21 17:30N 40°40' W 074°01'1 1.5
2018-May-21 16:58N 40°40' W 074°02'0 0.3
2018-May-21 16:28N 40°40' W 074°02'3 6.0
2018-May-21 16:01N 40°39' W 074°05'3 2.2
2018-May-21 14:25N 40°39' W 074°10'2 6.0
2018-May-21 14:00N 40°39' W 074°07'3 6.8
2018-May-21 13:30N 40°40' W 074°02'0 0.8
2018-May-21 13:01N 40°40' W 074°02'0 0.0
2018-May-21 12:31N 40°40' W 074°02'0 0.0
2018-May-21 12:00N 40°40' W 074°02'0 0.0
2018-May-21 11:30N 40°40' W 074°02'0 0.0
2018-May-21 11:01N 40°40' W 074°02'0 0.0
2018-May-21 10:31N 40°40' W 074°02'0 0.0
2018-May-21 10:01N 40°40' W 074°02'0 0.0
2018-May-21 09:31N 40°40' W 074°02'0 0.1
2018-May-21 09:01N 40°40' W 074°02'0 0.0
2018-May-21 08:31N 40°40' W 074°02'0 0.3
2018-May-21 08:00N 40°40' W 074°02'0 0.2
2018-May-21 07:30N 40°40' W 074°02'0 0.1
2018-May-21 07:01N 40°40' W 074°02'0 0.0
2018-May-21 06:31N 40°40' W 074°02'0 0.0
2018-May-21 06:01N 40°40' W 074°02'0 0.0
2018-May-21 05:30N 40°40' W 074°02'0 0.0
2018-May-21 05:01N 40°40' W 074°02'0 0.0
2018-May-21 04:31N 40°40' W 074°02'0 0.0
2018-May-21 04:01N 40°40' W 074°02'0 0.3
2018-May-21 03:30N 40°40' W 074°02'0 0.2
2018-May-21 03:00N 40°40' W 074°02'0 0.0
2018-May-21 02:31N 40°40' W 074°02'0 0.1
2018-May-21 02:01N 40°40' W 074°02'0 0.0
2018-May-21 01:31N 40°40' W 074°02'0 0.1
2018-May-21 01:01N 40°40' W 074°02'0 0.0
2018-May-21 00:30N 40°40' W 074°02'0 0.0
2018-May-21 00:00N 40°40' W 074°02'0 0.0
2018-May-20 23:30N 40°40' W 074°02'0 0.0
2018-May-20 23:01N 40°40' W 074°02'0 0.1
2018-May-20 22:30N 40°40' W 074°02'0 0.0
2018-May-20 22:00N 40°40' W 074°02'0 0.0
2018-May-20 21:30N 40°40' W 074°02'0 0.0
2018-May-20 21:00N 40°40' W 074°02'0 0.0
2018-May-20 20:30N 40°40' W 074°02'0 0.1
2018-May-20 20:00N 40°40' W 074°02'0 0.1
2018-May-20 19:30N 40°40' W 074°02'0 0.1
2018-May-20 19:00N 40°40' W 074°02'0 0.1
2018-May-20 18:30N 40°40' W 074°02'0 0.0
2018-May-20 18:00N 40°40' W 074°02'0 0.0
2018-May-20 17:30N 40°40' W 074°02'0 0.1
2018-May-20 17:00N 40°40' W 074°02'0 0.0
2018-May-20 16:30N 40°40' W 074°02'0 0.0
2018-May-20 16:00N 40°40' W 074°02'0 0.1
2018-May-20 15:30N 40°40' W 074°02'0 0.3
2018-May-20 14:57N 40°40' W 074°02'0 0.1
2018-May-20 14:30N 40°40' W 074°02'0 0.1
2018-May-20 14:00N 40°40' W 074°02'0 0.0
2018-May-20 13:30N 40°40' W 074°02'0 0.0
2018-May-20 12:54N 40°40' W 074°02'0 0.0
2018-May-20 12:21N 40°40' W 074°02'0 0.1
2018-May-20 12:00N 40°40' W 074°02'0 0.0
2018-May-20 11:27N 40°40' W 074°02'0 0.0
2018-May-20 11:00N 40°40' W 074°02'0 0.0
2018-May-20 10:30N 40°40' W 074°02'0 0.0
2018-May-20 09:57N 40°40' W 074°02'0 0.0
2018-May-20 09:12N 40°40' W 074°02'0 0.0
2018-May-20 08:57N 40°40' W 074°02'0 0.0
2018-May-20 08:21N 40°40' W 074°02'0 0.0
2018-May-20 07:57N 40°40' W 074°02'0 0.1
2018-May-20 07:21N 40°40' W 074°02'0 0.1
2018-May-20 06:57N 40°40' W 074°02'0 0.2
2018-May-20 06:24N 40°40' W 074°02'0 0.1
2018-May-20 05:51N 40°40' W 074°02'0 0.0
2018-May-20 05:27N 40°40' W 074°02'0 0.0
2018-May-20 05:00N 40°40' W 074°02'0 0.0
2018-May-20 04:30N 40°40' W 074°02'0 0.0
2018-May-20 04:00N 40°40' W 074°02'0 0.0
2018-May-20 03:30N 40°40' W 074°02'0 0.0
2018-May-20 03:00N 40°40' W 074°02'0 0.1
2018-May-20 02:30N 40°40' W 074°02'0 0.3
2018-May-20 02:00N 40°40' W 074°02'0 0.0
2018-May-20 01:30N 40°40' W 074°02'0 0.0
2018-May-20 01:00N 40°40' W 074°02'0 0.0
2018-May-20 00:30N 40°40' W 074°02'0 0.0
2018-May-20 00:00N 40°40' W 074°02'0 0.1
2018-May-19 23:30N 40°40' W 074°02'0 0.0
2018-May-19 23:00N 40°40' W 074°02'0 0.0
2018-May-19 22:30N 40°40' W 074°02'0 0.0
2018-May-19 22:00N 40°40' W 074°02'0 0.0
2018-May-19 21:30N 40°40' W 074°02'0 0.0
2018-May-19 21:00N 40°40' W 074°02'0 0.0
2018-May-19 20:30N 40°40' W 074°02'0 0.1
2018-May-19 20:00N 40°40' W 074°02'0 0.0
2018-May-19 19:30N 40°40' W 074°02'0 0.0
2018-May-19 19:00N 40°40' W 074°02'0 0.1
2018-May-19 18:30N 40°40' W 074°02'0 0.2
2018-May-19 18:00N 40°40' W 074°02'0 0.1
2018-May-19 17:30N 40°40' W 074°02'0 0.0
2018-May-19 17:00N 40°40' W 074°02'2 3.2
2018-May-19 16:30N 40°39' W 074°03'1 2.5
2018-May-19 16:01N 40°39' W 074°05'1 1.8
2018-May-19 15:30N 40°40' W 074°05'0 0.5
2018-May-19 14:59N 40°40' W 074°05'0 0.0
2018-May-19 14:29N 40°40' W 074°05'0 0.0
2018-May-19 13:59N 40°40' W 074°05'0 0.0
2018-May-19 13:29N 40°40' W 074°05'0 0.0
2018-May-19 12:59N 40°40' W 074°05'0 0.0
2018-May-19 12:26N 40°40' W 074°05'0 0.0
2018-May-19 11:59N 40°40' W 074°05'0 0.0
2018-May-19 11:29N 40°40' W 074°05'0 0.0
2018-May-19 10:59N 40°40' W 074°05'0 0.0
2018-May-19 10:23N 40°40' W 074°05'0 0.0
2018-May-19 09:59N 40°40' W 074°05'0 0.0
2018-May-19 09:29N 40°40' W 074°05'0 0.0
2018-May-19 08:59N 40°40' W 074°05'0 0.0
2018-May-19 08:29N 40°40' W 074°05'0 0.0
2018-May-19 07:59N 40°40' W 074°05'0 0.0
2018-May-19 07:29N 40°40' W 074°05'0 0.0
2018-May-19 06:59N 40°40' W 074°05'0 0.0
2018-May-19 06:29N 40°40' W 074°05'0 0.1
2018-May-19 05:56N 40°40' W 074°05'0 0.2
2018-May-19 05:29N 40°40' W 074°05'0 0.0
2018-May-19 04:56N 40°40' W 074°05'0 0.0
2018-May-19 04:29N 40°40' W 074°05'0 0.0
2018-May-19 03:59N 40°40' W 074°05'0 0.1
2018-May-19 03:30N 40°40' W 074°05'1 1.6
2018-May-19 02:55N 40°39' W 074°05'0 0.5
2018-May-19 02:30N 40°39' W 074°05'1 2.9
2018-May-19 02:00N 40°39' W 074°03'0 0.1
2018-May-19 01:30N 40°39' W 074°03'0 0.2
2018-May-19 00:57N 40°39' W 074°03'0 0.2
2018-May-19 00:30N 40°39' W 074°03'0 0.1
2018-May-19 00:00N 40°39' W 074°03'0 0.0
2018-May-18 23:27N 40°39' W 074°03'0 0.0
2018-May-18 22:57N 40°39' W 074°03'0 0.0
2018-May-18 22:30N 40°39' W 074°03'0 0.0
2018-May-18 22:00N 40°39' W 074°03'0 0.0
2018-May-18 21:30N 40°39' W 074°03'0 0.0
2018-May-18 21:00N 40°39' W 074°03'0 0.0
2018-May-18 20:24N 40°39' W 074°03'0 0.0
2018-May-18 19:57N 40°39' W 074°03'0 0.0
2018-May-18 19:30N 40°39' W 074°03'0 0.0
2018-May-18 19:00N 40°39' W 074°03'1 1.1
2018-May-18 18:30N 40°39' W 074°04'4 6.9
2018-May-18 18:00N 40°39' W 074°08'2 4.5
2018-May-18 17:30N 40°39' W 074°11'0 0.2
2018-May-18 15:20N 40°38' W 074°12'2 5.8
2018-May-18 14:58N 40°39' W 074°09'4 8.4
2018-May-18 14:31N 40°39' W 074°04'2 3.1
2018-May-18 14:00N 40°40' W 074°03'2 4.5
2018-May-18 13:30N 40°39' W 074°05'3 4.6
2018-May-18 12:56N 40°39' W 074°09'2 3.3
2018-May-18 12:27N 40°41' W 074°09'1 2.4
2018-May-18 12:00N 40°40' W 074°08'2 4.8
2018-May-18 11:30N 40°39' W 074°06'0 0.0
2018-May-18 11:00N 40°39' W 074°06'2 4.6
2018-May-18 10:30N 40°39' W 074°09'1 2.5
2018-May-18 09:57N 40°40' W 074°09'0 0.0
2018-May-18 08:42N 40°40' W 074°09'0 0.0
2018-May-18 07:00N 40°40' W 074°09'1 2.6
2018-May-18 06:30N 40°39' W 074°09'3 6.5
2018-May-18 06:00N 40°39' W 074°05'3 6.6
2018-May-18 05:30N 40°40' W 074°00'0 0.0
2018-May-18 05:00N 40°40' W 074°00'0 0.0
2018-May-18 04:30N 40°40' W 074°00'0 0.0
2018-May-18 04:00N 40°40' W 074°00'0 0.0
2018-May-18 03:30N 40°40' W 074°00'0 0.0
2018-May-18 03:00N 40°40' W 074°00'0 0.0
2018-May-18 02:30N 40°40' W 074°00'0 0.0
2018-May-18 02:00N 40°40' W 074°00'0 0.0
2018-May-18 01:30N 40°40' W 074°00'0 0.0
2018-May-18 01:00N 40°40' W 074°00'0 0.0
2018-May-18 00:30N 40°40' W 074°00'0 0.0
2018-May-18 00:01N 40°40' W 074°00'0 0.1
2018-May-17 23:30N 40°40' W 074°00'0 0.1
2018-May-17 23:00N 40°40' W 074°00'0 0.0
2018-May-17 22:30N 40°40' W 074°00'2 3.2
2018-May-17 22:01N 40°39' W 074°02'5 8.7
2018-May-17 21:29N 40°39' W 074°08'0 0.7
2018-May-17 20:55N 40°39' W 074°08'4 9.0
2018-May-17 20:30N 40°40' W 074°03'1 2.8
2018-May-17 20:00N 40°41' W 074°01'4 8.8
2018-May-17 19:30N 40°39' W 074°07'4 8.5
2018-May-17 19:00N 40°40' W 074°01'1 2.1
2018-May-17 18:30N 40°40' W 074°00'0 0.0
2018-May-17 18:00N 40°40' W 074°00'0 0.0
2018-May-17 17:30N 40°40' W 074°00'0 0.0
2018-May-17 17:00N 40°40' W 074°00'0 0.0
2018-May-17 16:30N 40°40' W 074°00'0 0.0
2018-May-17 16:00N 40°40' W 074°00'0 0.0
2018-May-17 15:30N 40°40' W 074°00'0 0.0
2018-May-17 15:00N 40°40' W 074°00'0 0.5
2018-May-17 14:30N 40°40' W 074°00'2 3.0
2018-May-17 14:00N 40°41' W 074°00'0 0.1
2018-May-17 13:26N 40°41' W 074°00'2 4.1
2018-May-17 13:00N 40°40' W 074°01'3 5.3
2018-May-17 12:29N 40°40' W 074°05'0 0.0
2018-May-17 11:59N 40°40' W 074°05'0 0.0
2018-May-17 11:29N 40°40' W 074°05'0 0.0
2018-May-17 10:56N 40°40' W 074°05'0 0.0
2018-May-17 10:29N 40°40' W 074°05'0 0.0
2018-May-17 09:53N 40°40' W 074°05'0 0.0
2018-May-17 09:23N 40°40' W 074°05'0 0.0
2018-May-17 08:59N 40°40' W 074°05'2 3.6
2018-May-17 08:30N 40°39' W 074°07'3 7.0
2018-May-17 08:00N 40°39' W 074°02'2 3.4
2018-May-17 07:31N 40°40' W 074°00'0 0.0
2018-May-17 07:01N 40°40' W 074°00'0 0.0
2018-May-17 06:30N 40°40' W 074°00'0 0.0
2018-May-17 06:00N 40°40' W 074°00'0 0.6
2018-May-17 05:30N 40°40' W 074°00'4 7.2
2018-May-17 05:01N 40°39' W 074°05'3 5.7
2018-May-17 04:30N 40°40' W 074°09'0 0.0
2018-May-17 04:00N 40°40' W 074°09'2 4.7
2018-May-17 03:29N 40°39' W 074°06'0 0.4
2018-May-17 02:52N 40°39' W 074°05'0 0.0
2018-May-17 02:28N 40°39' W 074°05'0 0.0
2018-May-17 00:46N 40°39' W 074°05'0 0.0
2018-May-17 00:27N 40°39' W 074°05'0 0.6
2018-May-16 23:46N 40°39' W 074°06'0 1.6
2018-May-16 23:30N 40°39' W 074°05'  

Dump ship's entire track history